createdAt,value
2019-04-06T00:00:26.173Z,9.92
2019-04-06T00:02:52.188Z,9.84
2019-04-06T00:05:18.217Z,9.73
2019-04-06T00:07:44.314Z,9.67
2019-04-06T00:10:11.092Z,9.62
2019-04-06T00:12:37.224Z,9.64
2019-04-06T00:15:05.376Z,9.75
2019-04-06T00:17:31.481Z,9.83
2019-04-06T00:19:57.526Z,9.76
2019-04-06T00:22:23.547Z,9.65
2019-04-06T00:24:49.681Z,9.58
2019-04-06T00:27:15.907Z,9.13
2019-04-06T00:29:41.920Z,9.29
2019-04-06T00:32:07.944Z,9.26
2019-04-06T00:34:34.170Z,9.35
2019-04-06T00:37:00.300Z,9.51
2019-04-06T00:39:26.420Z,9.48
2019-04-06T00:41:52.549Z,9.51
2019-04-06T00:44:18.873Z,9.68
2019-04-06T00:46:44.898Z,9.65
2019-04-06T00:49:11.022Z,9.59
2019-04-06T00:51:37.147Z,9.64
2019-04-06T00:54:03.309Z,9.65
2019-04-06T00:56:29.479Z,9.72
2019-04-06T00:58:55.674Z,9.72
2019-04-06T01:01:21.760Z,9.50
2019-04-06T01:03:47.773Z,9.54
2019-04-06T01:06:13.794Z,9.80
2019-04-06T01:08:39.919Z,9.75
2019-04-06T01:11:06.044Z,9.81
2019-04-06T01:13:32.067Z,9.58
2019-04-06T01:15:58.241Z,9.42
2019-04-06T01:18:24.317Z,9.55
2019-04-06T01:20:50.340Z,9.71
2019-04-06T01:23:16.366Z,9.65
2019-04-06T01:25:42.393Z,9.71
2019-04-06T01:28:08.615Z,9.84
2019-04-06T01:30:34.708Z,9.84
2019-04-06T01:33:00.762Z,9.97
2019-04-06T01:35:26.785Z,9.76
2019-04-06T01:37:53.017Z,9.94
2019-04-06T01:40:19.036Z,10.18
2019-04-06T01:42:45.061Z,10.11
2019-04-06T01:45:11.182Z,10.18
2019-04-06T01:47:37.203Z,10.11
2019-04-06T01:50:04.047Z,9.86
2019-04-06T01:52:30.169Z,9.63
2019-04-06T01:54:56.295Z,9.50
2019-04-06T01:57:22.322Z,9.27
2019-04-06T01:59:48.246Z,9.61
2019-04-06T02:02:14.172Z,9.91
2019-04-06T02:04:40.224Z,9.88
2019-04-06T02:07:06.472Z,9.91
2019-04-06T02:09:32.556Z,10.06
2019-04-06T02:11:58.965Z,9.99
2019-04-06T02:14:25.157Z,9.99
2019-04-06T02:16:51.186Z,9.88
2019-04-06T02:19:17.246Z,9.92
2019-04-06T02:21:43.259Z,9.84
2019-04-06T02:24:09.283Z,9.95
2019-04-06T02:26:35.304Z,10.09
2019-04-06T02:29:01.331Z,10.20
2019-04-06T02:31:27.537Z,10.09
2019-04-06T02:33:53.815Z,9.95
2019-04-06T02:36:19.827Z,9.91
2019-04-06T02:38:45.852Z,9.88
2019-04-06T02:41:12.020Z,9.91
2019-04-06T02:43:38.375Z,10.26
2019-04-06T02:46:04.718Z,10.53
2019-04-06T02:48:31.153Z,10.52
2019-04-06T02:50:57.173Z,10.54
2019-04-06T02:53:23.373Z,10.49
2019-04-06T02:55:49.524Z,10.54
2019-04-06T02:58:15.649Z,10.42
2019-04-06T03:00:42.115Z,10.46
2019-04-06T03:03:08.540Z,10.23
2019-04-06T03:05:34.534Z,10.23
2019-04-06T03:08:00.780Z,10.09
2019-04-06T03:10:26.888Z,9.86
2019-04-06T03:12:52.951Z,9.74
2019-04-06T03:15:18.931Z,10.10
2019-04-06T03:17:44.957Z,10.17
2019-04-06T03:20:11.237Z,10.16
2019-04-06T03:22:37.204Z,10.17
2019-04-06T03:25:05.379Z,10.15
2019-04-06T03:27:31.412Z,10.16
2019-04-06T03:29:59.128Z,10.01
2019-04-06T03:32:25.487Z,9.95
2019-04-06T03:34:52.284Z,10.02
2019-04-06T03:37:18.367Z,10.04
2019-04-06T03:39:44.485Z,9.84
2019-04-06T03:42:11.328Z,9.77
2019-04-06T03:44:37.775Z,9.82
2019-04-06T03:47:03.891Z,9.76
2019-04-06T03:49:29.904Z,9.87
2019-04-06T03:51:56.145Z,9.90
2019-04-06T03:54:22.165Z,9.78
2019-04-06T03:56:48.252Z,9.86
2019-04-06T03:59:14.409Z,9.78
2019-04-06T04:01:40.341Z,9.64
2019-04-06T04:04:06.638Z,9.81
2019-04-06T04:06:32.677Z,9.87
2019-04-06T04:08:58.788Z,9.96
2019-04-06T04:11:24.971Z,9.98
2019-04-06T04:13:50.952Z,9.94
2019-04-06T04:16:16.977Z,10.00
2019-04-06T04:18:43.003Z,10.02
2019-04-06T04:21:09.042Z,9.97
2019-04-06T04:23:35.157Z,9.93
2019-04-06T04:26:01.371Z,10.00
2019-04-06T04:28:27.421Z,9.93
2019-04-06T04:30:53.628Z,9.98
2019-04-06T04:33:19.648Z,9.98
2019-04-06T04:35:45.914Z,10.07
2019-04-06T04:38:12.222Z,10.05
2019-04-06T04:40:38.219Z,9.96
2019-04-06T04:43:04.245Z,10.01
2019-04-06T04:45:30.275Z,10.05
2019-04-06T04:47:56.262Z,10.06
2019-04-06T04:50:22.444Z,9.93
2019-04-06T04:52:48.643Z,9.84
2019-04-06T04:55:14.747Z,9.85
2019-04-06T04:57:42.000Z,9.89
2019-04-06T05:00:09.166Z,9.86
2019-04-06T05:02:35.191Z,9.87
2019-04-06T05:05:01.334Z,9.96
2019-04-06T05:07:27.271Z,9.94
2019-04-06T05:09:53.363Z,9.98
2019-04-06T05:12:19.483Z,9.97
2019-04-06T05:14:56.872Z,9.93
2019-04-06T05:17:23.111Z,9.84
2019-04-06T05:19:49.141Z,9.98
2019-04-06T05:22:15.184Z,10.00
2019-04-06T05:24:41.377Z,9.89
2019-04-06T05:27:07.396Z,9.94
2019-04-06T05:29:33.700Z,9.91
2019-04-06T05:31:59.833Z,9.98
2019-04-06T05:34:25.776Z,10.00
2019-04-06T05:36:51.753Z,10.06
2019-04-06T05:39:17.712Z,10.11
2019-04-06T05:41:43.709Z,10.11
2019-04-06T05:44:11.873Z,10.05
2019-04-06T05:46:39.161Z,10.00
2019-04-06T05:49:05.375Z,9.97
2019-04-06T05:51:31.456Z,9.92
2019-04-06T05:53:57.844Z,10.03
2019-04-06T05:56:23.967Z,10.02
2019-04-06T05:58:50.029Z,10.01
2019-04-06T06:01:16.014Z,9.94
2019-04-06T06:03:42.161Z,9.98
2019-04-06T06:06:08.226Z,10.08
2019-04-06T06:08:34.399Z,10.09
2019-04-06T06:11:00.750Z,9.97
2019-04-06T06:13:26.843Z,9.98
2019-04-06T06:15:52.773Z,9.99
2019-04-06T06:18:26.463Z,9.96
2019-04-06T06:20:48.395Z,10.00
2019-04-06T06:23:14.568Z,10.01
2019-04-06T06:25:40.853Z,9.95
2019-04-06T06:28:14.231Z,9.97
2019-04-06T06:30:35.040Z,10.05
2019-04-06T06:33:01.166Z,10.15
2019-04-06T06:35:27.433Z,10.15
2019-04-06T06:37:53.669Z,9.95
2019-04-06T06:40:19.746Z,9.66
2019-04-06T06:42:45.716Z,9.75
2019-04-06T06:45:11.845Z,10.08
2019-04-06T06:47:37.925Z,10.22
2019-04-06T06:50:05.542Z,9.60
2019-04-06T06:52:31.603Z,9.81
2019-04-06T06:54:57.623Z,9.78
2019-04-06T06:57:23.953Z,9.44
2019-04-06T06:59:49.935Z,9.58
2019-04-06T07:02:16.203Z,10.04
2019-04-06T07:04:42.232Z,10.19
2019-04-06T07:07:08.318Z,10.18
2019-04-06T07:09:34.372Z,10.29
2019-04-06T07:12:00.350Z,9.89
2019-04-06T07:14:26.417Z,10.56
2019-04-06T07:16:52.442Z,10.73
2019-04-06T07:19:18.669Z,10.54
2019-04-06T07:21:44.718Z,10.97
2019-04-06T07:24:10.818Z,11.26
2019-04-06T07:26:37.144Z,11.52
2019-04-06T07:29:03.372Z,12.05
2019-04-06T07:31:29.810Z,12.34
2019-04-06T07:33:55.930Z,12.54
2019-04-06T07:36:22.156Z,12.62
2019-04-06T07:38:48.177Z,12.90
2019-04-06T07:41:14.203Z,13.19
2019-04-06T07:43:40.429Z,13.48
2019-04-06T07:46:06.450Z,13.38
2019-04-06T07:48:32.587Z,13.31
2019-04-06T07:50:58.623Z,13.25
2019-04-06T07:53:24.677Z,13.30
2019-04-06T07:55:51.794Z,13.44
2019-04-06T07:58:17.867Z,13.48
2019-04-06T08:00:44.536Z,13.21
2019-04-06T08:03:10.873Z,13.44
2019-04-06T08:05:36.883Z,13.34
2019-04-06T08:08:03.111Z,13.44
2019-04-06T08:10:29.338Z,13.65
2019-04-06T08:12:55.382Z,13.83
2019-04-06T08:15:21.487Z,13.74
2019-04-06T08:17:47.513Z,14.11
2019-04-06T08:20:13.887Z,14.25
2019-04-06T08:22:39.963Z,14.19
2019-04-06T08:25:06.452Z,14.89
2019-04-06T08:27:32.401Z,14.80
2019-04-06T08:29:58.545Z,14.71
2019-04-06T08:32:24.575Z,14.85
2019-04-06T08:34:50.595Z,14.31
2019-04-06T08:37:16.647Z,14.54
2019-04-06T08:39:42.645Z,15.00
2019-04-06T08:42:08.777Z,15.09
2019-04-06T08:44:35.101Z,15.48
2019-04-06T08:47:01.269Z,15.31
2019-04-06T08:49:27.645Z,15.07
2019-04-06T08:51:53.778Z,15.16
2019-04-06T08:54:19.841Z,15.49
2019-04-06T08:56:45.845Z,15.41
2019-04-06T08:59:13.309Z,15.78
2019-04-06T09:01:40.103Z,15.75
2019-04-06T09:04:06.239Z,15.83
2019-04-06T09:06:32.366Z,15.96
2019-04-06T09:08:58.308Z,16.06
2019-04-06T09:11:24.312Z,16.11
2019-04-06T09:13:50.333Z,16.51
2019-04-06T09:16:16.568Z,16.55
2019-04-06T09:18:42.786Z,16.52
2019-04-06T09:21:09.023Z,16.81
2019-04-06T09:23:35.034Z,16.95
2019-04-06T09:26:01.162Z,16.95
2019-04-06T09:28:27.704Z,16.65
2019-04-06T09:30:54.179Z,16.47
2019-04-06T09:33:20.783Z,16.77
2019-04-06T09:35:46.992Z,16.89
2019-04-06T09:38:13.084Z,17.28
2019-04-06T09:40:39.144Z,17.14
2019-04-06T09:43:05.160Z,17.19
2019-04-06T09:45:31.200Z,17.07
2019-04-06T09:47:57.209Z,17.31
2019-04-06T09:50:23.479Z,17.51
2019-04-06T09:52:49.559Z,17.59
2019-04-06T09:55:15.491Z,17.49
2019-04-06T09:57:41.711Z,17.55
2019-04-06T10:00:09.315Z,17.44
2019-04-06T10:02:35.699Z,17.40
2019-04-06T10:05:03.571Z,17.28
2019-04-06T10:07:29.731Z,17.90
2019-04-06T10:09:55.719Z,17.78
2019-04-06T10:12:21.736Z,17.24
2019-04-06T10:14:47.867Z,16.92
2019-04-06T10:17:13.882Z,17.42
2019-04-06T10:19:39.907Z,17.58
2019-04-06T10:22:06.188Z,17.80
2019-04-06T10:24:32.467Z,17.87
2019-04-06T10:26:58.695Z,18.20
2019-04-06T10:29:24.993Z,17.95
2019-04-06T10:31:51.381Z,17.81
2019-04-06T10:34:17.490Z,17.53
2019-04-06T10:36:43.502Z,17.87
2019-04-06T10:39:09.626Z,18.03
2019-04-06T10:41:35.646Z,18.02
2019-04-06T10:44:01.666Z,18.28
2019-04-06T10:46:27.693Z,17.97
2019-04-06T10:48:53.730Z,17.78
2019-04-06T10:51:19.995Z,17.89
2019-04-06T10:53:46.115Z,18.14
2019-04-06T10:56:12.375Z,18.46
2019-04-06T10:58:38.518Z,18.33
2019-04-06T11:01:04.721Z,18.16
2019-04-06T11:03:30.977Z,17.82
2019-04-06T11:05:57.205Z,17.66
2019-04-06T11:08:23.580Z,17.66
2019-04-06T11:10:49.655Z,17.70
2019-04-06T11:13:15.733Z,17.73
2019-04-06T11:15:41.752Z,17.96
2019-04-06T11:18:07.881Z,18.21
2019-04-06T11:20:34.364Z,18.69
2019-04-06T11:23:00.744Z,17.93
2019-04-06T11:25:26.802Z,17.98
2019-04-06T11:27:52.841Z,17.96
2019-04-06T11:30:19.168Z,18.31
2019-04-06T11:32:45.189Z,18.18
2019-04-06T11:35:11.315Z,18.12
2019-04-06T11:37:37.342Z,18.14
2019-04-06T11:40:05.260Z,18.15
2019-04-06T11:42:31.534Z,18.37
2019-04-06T11:44:57.606Z,18.08
2019-04-06T11:47:23.612Z,18.19
2019-04-06T11:49:49.905Z,18.33
2019-04-06T11:52:15.862Z,18.54
2019-04-06T11:54:41.954Z,18.80
2019-04-06T11:57:07.977Z,19.14
2019-04-06T11:59:34.001Z,18.89
2019-04-06T12:02:00.334Z,18.88
2019-04-06T12:04:26.355Z,18.70
2019-04-06T12:06:52.381Z,18.86
2019-04-06T12:09:18.398Z,18.78
2019-04-06T12:11:44.455Z,18.44
2019-04-06T12:14:10.547Z,18.02
2019-04-06T12:16:36.929Z,18.23
2019-04-06T12:19:03.308Z,18.55
2019-04-06T12:21:29.452Z,18.97
2019-04-06T12:23:55.945Z,19.16
2019-04-06T12:26:22.004Z,18.98
2019-04-06T12:28:48.216Z,19.09
2019-04-06T12:31:14.406Z,18.94
2019-04-06T12:33:40.502Z,18.76
2019-04-06T12:36:06.494Z,18.65
2019-04-06T12:38:32.635Z,17.90
2019-04-06T12:40:59.150Z,17.99
2019-04-06T12:43:25.131Z,18.25
2019-04-06T12:45:51.442Z,18.45
2019-04-06T12:48:17.731Z,18.29
2019-04-06T12:50:43.882Z,17.91
2019-04-06T12:53:09.879Z,18.01
2019-04-06T12:55:36.007Z,18.02
2019-04-06T12:58:02.236Z,18.14
2019-04-06T13:00:28.258Z,18.16
2019-04-06T13:02:54.279Z,17.85
2019-04-06T13:05:20.404Z,17.93
2019-04-06T13:07:46.681Z,18.09
2019-04-06T13:10:12.960Z,17.88
2019-04-06T13:12:39.083Z,17.88
2019-04-06T13:15:05.518Z,18.04
2019-04-06T13:17:31.746Z,18.22
2019-04-06T13:19:57.873Z,18.31
2019-04-06T13:22:23.998Z,18.16
2019-04-06T13:24:50.161Z,18.40
2019-04-06T13:27:16.350Z,18.27
2019-04-06T13:29:42.585Z,18.33
2019-04-06T13:32:08.599Z,18.67
2019-04-06T13:34:34.622Z,18.53
2019-04-06T13:37:00.931Z,18.34
2019-04-06T13:39:27.326Z,18.61
2019-04-06T13:41:54.638Z,18.97
2019-04-06T13:44:20.656Z,19.08
2019-04-06T13:46:46.783Z,19.20
2019-04-06T13:49:12.907Z,18.74
2019-04-06T13:51:39.033Z,18.80
2019-04-06T13:54:05.576Z,19.23
2019-04-06T13:56:33.023Z,18.85
2019-04-06T13:58:59.251Z,18.64
2019-04-06T14:01:25.376Z,18.86
2019-04-06T14:03:51.527Z,19.25
2019-04-06T14:06:18.129Z,19.04
2019-04-06T14:08:44.572Z,19.18
2019-04-06T14:11:30.739Z,19.29
2019-04-06T14:13:58.544Z,18.90
2019-04-06T14:16:24.654Z,18.95
2019-04-06T14:18:54.485Z,19.02
2019-04-06T14:21:23.132Z,18.65
2019-04-06T14:23:50.537Z,18.71
2019-04-06T14:26:20.039Z,18.82
2019-04-06T14:28:47.163Z,18.99
2019-04-06T14:31:25.811Z,18.60
2019-04-06T14:33:41.992Z,18.20
2019-04-06T14:36:09.609Z,18.40
2019-04-06T14:38:36.063Z,18.40
2019-04-06T14:41:02.500Z,18.24
2019-04-06T14:43:28.448Z,18.41
2019-04-06T14:45:54.545Z,18.45
2019-04-06T14:48:20.564Z,18.59
2019-04-06T14:50:46.803Z,18.79
2019-04-06T14:53:12.917Z,18.78
2019-04-06T14:55:39.044Z,18.87
2019-04-06T14:58:05.411Z,18.87
2019-04-06T15:00:32.011Z,18.86
2019-04-06T15:02:58.275Z,18.61
2019-04-06T15:05:24.464Z,18.58
2019-04-06T15:07:50.613Z,18.56
2019-04-06T15:10:16.610Z,18.66
2019-04-06T15:12:42.683Z,18.70
2019-04-06T15:15:09.452Z,18.80
2019-04-06T15:17:35.527Z,18.66
2019-04-06T15:20:03.570Z,18.74
2019-04-06T15:22:29.719Z,18.76
2019-04-06T15:24:55.724Z,18.74
2019-04-06T15:27:21.859Z,19.00
2019-04-06T15:29:47.898Z,18.89
2019-04-06T15:32:14.202Z,18.72
2019-04-06T15:34:40.589Z,18.59
2019-04-06T15:37:07.476Z,18.54
2019-04-06T15:39:34.006Z,18.78
2019-04-06T15:42:01.422Z,18.63
2019-04-06T15:44:27.689Z,18.45
2019-04-06T15:46:53.739Z,18.51
2019-04-06T15:49:19.835Z,18.25
2019-04-06T15:51:45.860Z,17.96
2019-04-06T15:54:12.131Z,17.66
2019-04-06T15:56:38.313Z,17.68
2019-04-06T15:59:04.435Z,17.87
2019-04-06T16:01:30.567Z,18.18
2019-04-06T16:03:58.884Z,18.14
2019-04-06T16:06:25.065Z,17.96
2019-04-06T16:08:51.937Z,17.98
2019-04-06T16:11:18.137Z,18.04
2019-04-06T16:13:44.491Z,17.98
2019-04-06T16:16:10.452Z,17.99
2019-04-06T16:18:37.123Z,18.07
2019-04-06T16:21:03.300Z,17.94
2019-04-06T16:23:29.379Z,17.87
2019-04-06T16:25:55.501Z,17.99
2019-04-06T16:28:22.113Z,18.00
2019-04-06T16:30:50.460Z,18.12
2019-04-06T16:33:16.241Z,18.03
2019-04-06T16:35:42.254Z,18.10
2019-04-06T16:38:08.762Z,18.18
2019-04-06T16:40:35.023Z,17.93
2019-04-06T16:43:01.148Z,17.92
2019-04-06T16:45:27.513Z,17.91
2019-04-06T16:47:53.961Z,17.97
2019-04-06T16:50:20.132Z,17.81
2019-04-06T16:52:47.279Z,17.67
2019-04-06T16:55:13.519Z,17.44
2019-04-06T16:57:40.028Z,17.41
2019-04-06T17:00:18.572Z,17.45
2019-04-06T17:02:36.229Z,17.49
2019-04-06T17:05:04.052Z,17.50
2019-04-06T17:07:30.088Z,17.49
2019-04-06T17:09:56.342Z,17.28
2019-04-06T17:12:22.651Z,17.07
2019-04-06T17:14:49.884Z,17.11
2019-04-06T17:17:16.345Z,16.98
2019-04-06T17:19:42.601Z,16.90
2019-04-06T17:22:08.693Z,16.92
2019-04-06T17:24:35.086Z,16.97
2019-04-06T17:27:01.435Z,16.85
2019-04-06T17:29:27.558Z,16.69
2019-04-06T17:31:53.725Z,16.62
2019-04-06T17:34:19.948Z,16.46
2019-04-06T17:36:46.489Z,16.34
2019-04-06T17:39:13.908Z,16.09
2019-04-06T17:41:40.146Z,16.04
2019-04-06T17:44:06.251Z,15.96
2019-04-06T17:46:32.480Z,15.93
2019-04-06T17:48:58.711Z,15.94
2019-04-06T17:51:24.682Z,15.79
2019-04-06T17:53:51.319Z,15.70
2019-04-06T17:56:18.125Z,15.75
2019-04-06T17:58:44.333Z,15.70
2019-04-06T18:01:10.821Z,15.70
2019-04-06T18:03:38.017Z,15.44
2019-04-06T18:08:43.155Z,15.89
2019-04-06T18:11:09.192Z,15.96
2019-04-06T18:13:35.682Z,15.94
2019-04-06T18:16:02.058Z,15.93
2019-04-06T18:18:28.193Z,15.86
2019-04-06T18:20:54.234Z,15.81
2019-04-06T18:23:20.231Z,15.24
2019-04-06T18:25:46.253Z,15.24
2019-04-06T18:28:12.483Z,15.06
2019-04-06T18:30:38.710Z,14.97
2019-04-06T18:33:04.685Z,14.85
2019-04-06T18:35:31.481Z,14.83
2019-04-06T18:37:57.799Z,14.93
2019-04-06T18:40:24.132Z,14.87
2019-04-06T18:42:50.751Z,14.70
2019-04-06T18:45:16.893Z,14.90
2019-04-06T18:47:42.913Z,14.79
2019-04-06T18:50:09.344Z,14.46
2019-04-06T18:52:35.371Z,14.21
2019-04-06T18:55:02.110Z,13.96
2019-04-06T18:57:28.132Z,13.83
2019-04-06T18:59:55.311Z,13.77
2019-04-06T19:02:21.417Z,13.56
2019-04-06T19:04:47.649Z,13.56
2019-04-06T19:07:14.197Z,13.45
2019-04-06T19:09:40.657Z,13.38
2019-04-06T19:12:06.845Z,13.27
2019-04-06T19:14:32.966Z,13.19
2019-04-06T19:16:59.205Z,13.08
2019-04-06T19:19:26.063Z,13.49
2019-04-06T19:21:52.456Z,13.49
2019-04-06T19:24:18.484Z,13.50
2019-04-06T19:26:44.513Z,13.64
2019-04-06T19:29:10.906Z,13.63
2019-04-06T19:31:37.667Z,13.86
2019-04-06T19:34:04.167Z,13.99
2019-04-06T19:36:30.279Z,13.24
2019-04-06T19:38:56.354Z,14.02
2019-04-06T19:41:22.478Z,13.78
2019-04-06T19:43:48.937Z,13.62
2019-04-06T19:46:15.071Z,13.96
2019-04-06T19:48:41.269Z,13.98
2019-04-06T19:51:07.387Z,13.91
2019-04-06T19:53:33.407Z,13.60
2019-04-06T19:56:00.051Z,13.26
2019-04-06T19:58:26.070Z,12.96
2019-04-06T20:00:52.040Z,12.85
2019-04-06T20:03:18.117Z,12.99
2019-04-06T20:05:44.139Z,12.86
2019-04-06T20:08:10.159Z,12.76
2019-04-06T20:10:36.221Z,12.71
2019-04-06T20:13:05.037Z,12.67
2019-04-06T20:15:31.201Z,12.62
2019-04-06T20:17:57.134Z,12.70
2019-04-06T20:20:23.454Z,12.85
2019-04-06T20:22:50.500Z,12.92
2019-04-06T20:25:16.622Z,12.86
2019-04-06T20:27:43.465Z,12.61
2019-04-06T20:30:10.043Z,12.38
2019-04-06T20:32:36.224Z,12.29
2019-04-06T20:35:05.304Z,12.17
2019-04-06T20:37:31.894Z,12.08
2019-04-06T20:39:58.085Z,12.02
2019-04-06T20:42:24.732Z,11.84
2019-04-06T20:44:50.955Z,11.76
2019-04-06T20:47:17.719Z,11.87
2019-04-06T20:49:45.254Z,11.86
2019-04-06T20:52:11.792Z,11.97
2019-04-06T20:54:38.425Z,11.94
2019-04-06T20:57:04.746Z,11.87
2019-04-06T20:59:30.972Z,11.88
2019-04-06T21:01:56.996Z,11.94
2019-04-06T21:04:23.643Z,11.89
2019-04-06T21:06:50.496Z,11.75
2019-04-06T21:09:16.705Z,11.75
2019-04-06T21:11:42.832Z,11.80
2019-04-06T21:14:09.055Z,11.89
2019-04-06T21:16:35.179Z,11.95
2019-04-06T21:19:01.309Z,12.02
2019-04-06T21:21:27.236Z,12.03
2019-04-06T21:23:53.999Z,11.91
2019-04-06T21:26:20.304Z,11.81
2019-04-06T21:28:46.582Z,11.84
2019-04-06T21:31:13.056Z,11.98
2019-04-06T21:33:41.140Z,11.88
2019-04-06T21:36:07.261Z,11.86
2019-04-06T21:38:33.484Z,11.64
2019-04-06T21:40:59.506Z,11.42
2019-04-06T21:43:25.595Z,11.38
2019-04-06T21:45:52.108Z,11.36
2019-04-06T21:48:18.140Z,11.40
2019-04-06T21:50:44.207Z,11.30
2019-04-06T21:53:10.592Z,11.23
2019-04-06T21:55:36.885Z,11.13
2019-04-06T21:58:03.098Z,11.05
2019-04-06T22:00:30.072Z,10.95
2019-04-06T22:02:56.370Z,10.86
2019-04-06T22:05:22.394Z,10.78
2019-04-06T22:07:52.021Z,10.73
2019-04-06T22:10:16.282Z,10.65
2019-04-06T22:12:42.303Z,10.62
2019-04-06T22:15:08.791Z,10.65
2019-04-06T22:17:35.173Z,10.77
2019-04-06T22:20:02.995Z,10.87
2019-04-06T22:22:29.375Z,10.86
2019-04-06T22:24:55.402Z,10.83
2019-04-06T22:27:21.513Z,10.72
2019-04-06T22:29:47.538Z,10.57
2019-04-06T22:32:13.992Z,10.46
2019-04-06T22:34:41.699Z,10.35
2019-04-06T22:37:08.557Z,10.27
2019-04-06T22:39:35.244Z,10.22
2019-04-06T22:42:02.131Z,10.12
2019-04-06T22:44:28.272Z,10.08
2019-04-06T22:46:54.248Z,10.04
2019-04-06T22:49:20.176Z,10.02
2019-04-06T22:51:46.168Z,9.95
2019-04-06T22:54:12.802Z,10.08
2019-04-06T22:56:38.880Z,10.11
2019-04-06T22:59:04.823Z,10.00
2019-04-06T23:01:30.995Z,10.02
2019-04-06T23:03:57.189Z,10.05
2019-04-06T23:06:23.431Z,10.20
2019-04-06T23:08:49.540Z,10.06
2019-04-06T23:11:15.586Z,10.09
2019-04-06T23:13:41.573Z,10.33
2019-04-06T23:16:07.599Z,10.37
2019-04-06T23:18:33.724Z,10.32
2019-04-06T23:20:59.744Z,10.13
2019-04-06T23:23:25.871Z,9.91
2019-04-06T23:25:52.907Z,9.65
2019-04-06T23:28:19.096Z,9.49
2019-04-06T23:30:45.318Z,9.42
2019-04-06T23:33:12.022Z,9.43
2019-04-06T23:35:38.107Z,9.20
2019-04-06T23:38:04.257Z,9.37
2019-04-06T23:40:30.560Z,9.33
2019-04-06T23:42:57.327Z,9.40
2019-04-06T23:45:23.537Z,9.56
2019-04-06T23:47:50.041Z,9.77
2019-04-06T23:50:16.911Z,9.77
2019-04-06T23:52:43.418Z,9.76
2019-04-06T23:55:09.743Z,9.69
2019-04-06T23:57:36.057Z,9.56
